Junco do Serido, Brazil
Current Conditions -  °F | °C
As of 3:00 AM on Friday 31 Oct 2014 (Local Time) from SBKG Reporting Station
Light Rain Light Rain  
Wind Chill: 68°   Ceiling: 1200
Heat Index: 68°   Visibility: 6mi
Dew Point: 68°   Wind: 8mph
Humidity: 100%   Direction: 110°ESE
Pressure: 29.97"   Gusts: NA
Location:  7°S, 36.71°W
Report Text: SBKG 310600Z 11007KT 9999 -RA BKN012 20/20 Q1015
Loading
Personal Weather Stations






























Interactive Weather Map
Tropical Storm Tracking
New forecast layout! Learn more

10-Day Weather Forecast

Advertisements
Track Severe Weather on mobile